createdAt,value
2023-11-22T00:01:21.386Z,-3.04
2023-11-22T00:03:53.233Z,-3.03
2023-11-22T00:06:25.032Z,-3.00
2023-11-22T00:08:56.840Z,-3.05
2023-11-22T00:11:28.799Z,-2.91
2023-11-22T00:14:00.703Z,-2.95
2023-11-22T00:16:33.293Z,-2.92
2023-11-22T00:19:05.182Z,-3.00
2023-11-22T00:21:37.119Z,-3.07
2023-11-22T00:24:10.068Z,-3.24
2023-11-22T00:26:42.898Z,-3.03
2023-11-22T00:29:14.841Z,-3.10
2023-11-22T00:31:46.668Z,-3.01
2023-11-22T00:34:21.343Z,-2.91
2023-11-22T00:36:53.644Z,-2.99
2023-11-22T00:39:25.944Z,-3.00
2023-11-22T00:41:57.725Z,-3.00
2023-11-22T00:44:29.571Z,-3.03
2023-11-22T00:47:01.632Z,-3.13
2023-11-22T00:49:33.630Z,-2.97
2023-11-22T00:52:05.548Z,-2.95
2023-11-22T00:54:37.321Z,-3.13
2023-11-22T00:57:09.099Z,-3.15
2023-11-22T00:59:41.061Z,-3.08
2023-11-22T01:02:13.034Z,-3.20
2023-11-22T01:04:44.852Z,-3.02
2023-11-22T01:07:16.635Z,-3.11
2023-11-22T01:09:48.427Z,-3.23
2023-11-22T01:12:20.673Z,-3.20
2023-11-22T01:14:53.019Z,-2.97
2023-11-22T01:17:25.199Z,-2.93
2023-11-22T01:19:57.090Z,-3.07
2023-11-22T01:22:28.882Z,-2.94
2023-11-22T01:25:00.729Z,-3.08
2023-11-22T01:27:32.510Z,-2.85
2023-11-22T01:30:04.931Z,-2.88
2023-11-22T01:32:37.117Z,-2.90
2023-11-22T01:35:09.343Z,-3.02
2023-11-22T01:37:41.136Z,-3.07
2023-11-22T01:40:14.125Z,-3.20
2023-11-22T01:42:46.081Z,-3.16
2023-11-22T01:45:19.168Z,-3.20
2023-11-22T01:47:52.961Z,-3.43
2023-11-22T01:50:24.856Z,-3.27
2023-11-22T01:52:56.777Z,-3.13
2023-11-22T01:55:29.017Z,-3.27
2023-11-22T01:58:00.882Z,-3.05
2023-11-22T02:00:38.214Z,-3.03
2023-11-22T02:03:10.187Z,-3.09
2023-11-22T02:05:43.651Z,-3.07
2023-11-22T02:08:15.597Z,-3.26
2023-11-22T02:10:50.667Z,-3.08
2023-11-22T02:13:23.655Z,-3.20
2023-11-22T02:15:57.472Z,-3.26
2023-11-22T02:18:29.873Z,-3.42
2023-11-22T02:21:01.871Z,-3.18
2023-11-22T02:23:33.991Z,-3.30
2023-11-22T02:26:05.967Z,-3.25
2023-11-22T02:28:37.724Z,-3.34
2023-11-22T02:31:09.808Z,-3.15
2023-11-22T02:33:43.238Z,-3.19
2023-11-22T02:36:15.012Z,-3.01
2023-11-22T02:38:48.311Z,-2.99
2023-11-22T02:41:20.335Z,-3.47
2023-11-22T02:43:52.264Z,-3.35
2023-11-22T02:46:24.931Z,-3.31
2023-11-22T02:48:56.723Z,-3.22
2023-11-22T02:51:28.587Z,-3.41
2023-11-22T02:54:00.369Z,-3.37
2023-11-22T02:56:32.227Z,-3.46
2023-11-22T02:59:04.335Z,-3.19
2023-11-22T03:01:36.126Z,-3.27
2023-11-22T03:04:07.975Z,-3.36
2023-11-22T03:06:39.755Z,-3.47
2023-11-22T03:09:11.524Z,-3.51
2023-11-22T03:11:43.400Z,-3.35
2023-11-22T03:14:15.217Z,-3.55
2023-11-22T03:16:47.201Z,-3.63
2023-11-22T03:19:20.925Z,-3.44
2023-11-22T03:21:52.702Z,-3.46
2023-11-22T03:24:24.476Z,-3.83
2023-11-22T03:26:57.488Z,-3.46
2023-11-22T03:29:30.635Z,-3.51
2023-11-22T03:32:02.628Z,-3.62
2023-11-22T03:34:34.495Z,-3.80
2023-11-22T03:37:06.315Z,-3.74
2023-11-22T03:39:38.315Z,-3.63
2023-11-22T03:42:10.085Z,-3.57
2023-11-22T03:44:42.032Z,-3.86
2023-11-22T03:47:16.845Z,-3.71
2023-11-22T03:49:48.712Z,-3.78
2023-11-22T03:52:20.663Z,-3.81
2023-11-22T03:54:52.574Z,-3.66
2023-11-22T03:57:24.402Z,-3.65
2023-11-22T03:59:56.232Z,-3.61
2023-11-22T04:02:30.851Z,-3.87
2023-11-22T04:05:02.868Z,-3.59
2023-11-22T04:07:34.940Z,-3.66
2023-11-22T04:10:07.419Z,-3.87
2023-11-22T04:12:39.356Z,-3.71
2023-11-22T04:15:11.734Z,-3.92
2023-11-22T04:17:44.383Z,-3.69
2023-11-22T04:20:16.713Z,-3.74
2023-11-22T04:22:48.589Z,-4.07
2023-11-22T04:25:20.428Z,-4.09
2023-11-22T04:27:52.671Z,-3.93
2023-11-22T04:30:24.448Z,-3.96
2023-11-22T04:32:56.364Z,-3.91
2023-11-22T04:35:35.531Z,-4.04
2023-11-22T04:38:07.375Z,-4.21
2023-11-22T04:40:39.246Z,-4.22
2023-11-22T04:43:11.081Z,-4.05
2023-11-22T04:45:43.015Z,-4.07
2023-11-22T04:48:16.632Z,-4.08
2023-11-22T04:50:48.443Z,-4.24
2023-11-22T04:53:20.671Z,-4.41
2023-11-22T04:55:52.503Z,-4.10
2023-11-22T04:58:24.285Z,-4.09
2023-11-22T05:00:56.187Z,-4.19
2023-11-22T05:03:28.020Z,-4.07
2023-11-22T05:06:00.238Z,-4.01
2023-11-22T05:08:32.060Z,-4.38
2023-11-22T05:11:04.594Z,-4.34
2023-11-22T05:13:36.450Z,-4.42
2023-11-22T05:16:08.790Z,-4.74
2023-11-22T05:18:40.610Z,-4.84
2023-11-22T05:21:12.406Z,-4.78
2023-11-22T05:23:46.422Z,-4.82
2023-11-22T05:26:18.519Z,-4.61
2023-11-22T05:28:50.365Z,-4.89
2023-11-22T05:31:22.567Z,-4.75
2023-11-22T05:33:54.341Z,-4.96
2023-11-22T05:36:26.144Z,-4.98
2023-11-22T05:39:00.898Z,-5.04
2023-11-22T05:41:32.822Z,-5.02
2023-11-22T05:44:04.778Z,-5.05
2023-11-22T05:46:36.596Z,-5.10
2023-11-22T05:49:09.758Z,-5.21
2023-11-22T05:51:41.624Z,-5.43
2023-11-22T05:54:14.100Z,-5.31
2023-11-22T05:56:45.968Z,-5.33
2023-11-22T05:59:17.772Z,-5.21
2023-11-22T06:01:49.646Z,-5.56
2023-11-22T06:04:21.625Z,-5.38
2023-11-22T06:06:53.626Z,-5.36
2023-11-22T06:09:25.668Z,-5.81
2023-11-22T06:11:57.476Z,-5.79
2023-11-22T06:14:29.358Z,-5.79
2023-11-22T06:17:01.186Z,-5.52
2023-11-22T06:19:33.115Z,-5.72
2023-11-22T06:22:05.251Z,-5.83
2023-11-22T06:24:37.513Z,-5.67
2023-11-22T06:27:09.327Z,-5.53
2023-11-22T06:29:41.094Z,-5.87
2023-11-22T06:32:12.929Z,-5.83
2023-11-22T06:34:44.733Z,-5.76
2023-11-22T06:37:16.517Z,-5.71
2023-11-22T06:39:48.525Z,-5.93
2023-11-22T06:42:23.665Z,-5.79
2023-11-22T06:44:59.730Z,-5.81
2023-11-22T06:47:31.740Z,-5.82
2023-11-22T06:50:10.495Z,-5.65
2023-11-22T06:52:43.395Z,-5.58
2023-11-22T06:55:15.414Z,-5.60
2023-11-22T06:57:47.254Z,-5.60
2023-11-22T07:00:19.451Z,-5.53
2023-11-22T07:02:51.280Z,-5.65
2023-11-22T07:05:23.220Z,-5.55
2023-11-22T07:07:56.950Z,-5.49
2023-11-22T07:10:28.801Z,-5.61
2023-11-22T07:13:02.799Z,-5.63
2023-11-22T07:15:34.639Z,-5.42
2023-11-22T07:18:06.729Z,-5.48
2023-11-22T07:20:40.594Z,-5.43
2023-11-22T07:23:15.311Z,-5.32
2023-11-22T07:25:47.186Z,-5.52
2023-11-22T07:28:19.005Z,-5.51
2023-11-22T07:30:51.042Z,-5.45
2023-11-22T07:33:22.872Z,-5.49
2023-11-22T07:35:54.980Z,-5.67
2023-11-22T07:38:26.934Z,-5.58
2023-11-22T07:40:59.430Z,-5.51
2023-11-22T07:43:31.905Z,-5.43
2023-11-22T07:46:14.744Z,-5.35
2023-11-22T07:48:48.817Z,-5.47
2023-11-22T07:51:20.745Z,-5.49
2023-11-22T07:53:52.530Z,-5.44
2023-11-22T07:56:24.445Z,-5.20
2023-11-22T07:58:56.358Z,-5.34
2023-11-22T08:01:31.275Z,-5.71
2023-11-22T08:04:04.093Z,-5.40
2023-11-22T08:06:36.317Z,-5.28
2023-11-22T08:09:10.108Z,-5.39
2023-11-22T08:11:42.447Z,-5.13
2023-11-22T08:14:15.560Z,-5.15
2023-11-22T08:16:47.489Z,-5.14
2023-11-22T08:19:19.266Z,-4.88
2023-11-22T08:21:51.185Z,-4.86
2023-11-22T08:24:23.412Z,-4.61
2023-11-22T08:26:55.312Z,-4.72
2023-11-22T08:29:27.172Z,-4.74
2023-11-22T08:31:59.415Z,-4.48
2023-11-22T08:34:31.186Z,-4.61
2023-11-22T08:37:03.348Z,-4.24
2023-11-22T08:39:35.561Z,-4.50
2023-11-22T08:42:10.761Z,-4.33
2023-11-22T08:44:42.946Z,-4.43
2023-11-22T08:47:14.886Z,-4.25
2023-11-22T08:49:46.795Z,-4.06
2023-11-22T08:52:18.553Z,-4.07
2023-11-22T08:54:51.660Z,-4.21
2023-11-22T08:57:23.528Z,-4.08
2023-11-22T08:59:55.903Z,-4.26
2023-11-22T09:02:28.237Z,-4.00
2023-11-22T09:05:00.336Z,-3.93
2023-11-22T09:07:32.705Z,-3.92
2023-11-22T09:10:11.533Z,-3.89
2023-11-22T09:12:45.437Z,-3.96
2023-11-22T09:15:19.076Z,-3.68
2023-11-22T09:17:51.854Z,-3.65
2023-11-22T09:20:24.844Z,-3.59
2023-11-22T09:22:56.871Z,-3.44
2023-11-22T09:25:29.556Z,-3.45
2023-11-22T09:28:01.550Z,-3.40
2023-11-22T09:30:37.193Z,-3.30
2023-11-22T09:33:12.743Z,-3.45
2023-11-22T09:35:47.307Z,-3.21
2023-11-22T09:38:19.468Z,-3.22
2023-11-22T09:40:52.540Z,-3.35
2023-11-22T09:43:26.230Z,-3.26
2023-11-22T09:46:00.011Z,-3.12
2023-11-22T09:48:32.934Z,-3.07
2023-11-22T09:51:22.505Z,-3.05
2023-11-22T09:54:05.892Z,-3.13
2023-11-22T09:56:38.599Z,-2.92
2023-11-22T09:59:15.200Z,-2.69
2023-11-22T10:01:47.162Z,-2.92
2023-11-22T10:04:19.178Z,-3.02
2023-11-22T10:06:51.237Z,-3.01
2023-11-22T10:09:25.417Z,-3.05
2023-11-22T10:12:03.344Z,-2.56
2023-11-22T10:14:35.865Z,-2.83
2023-11-22T10:17:09.348Z,-2.68
2023-11-22T10:19:41.794Z,-2.69
2023-11-22T10:22:18.727Z,-2.45
2023-11-22T10:24:50.585Z,-2.57
2023-11-22T10:27:22.506Z,-2.37
2023-11-22T10:29:54.457Z,-2.39
2023-11-22T10:32:26.464Z,-2.15
2023-11-22T10:34:59.142Z,-2.52
2023-11-22T10:37:31.012Z,-2.76
2023-11-22T10:40:05.683Z,-2.43
2023-11-22T10:42:39.633Z,-2.46
2023-11-22T10:45:12.005Z,-2.37
2023-11-22T10:47:44.811Z,-2.43
2023-11-22T10:50:17.112Z,-2.15
2023-11-22T10:52:53.865Z,-2.26
2023-11-22T10:55:28.597Z,-2.35
2023-11-22T10:58:04.068Z,-1.93
2023-11-22T11:00:38.124Z,-1.94
2023-11-22T11:03:23.710Z,-2.05
2023-11-22T11:06:06.066Z,-2.00
2023-11-22T11:08:39.790Z,-1.99
2023-11-22T11:11:11.806Z,-1.77
2023-11-22T11:13:44.881Z,-1.94
2023-11-22T11:16:18.270Z,-1.88
2023-11-22T11:18:50.894Z,-1.61
2023-11-22T11:21:23.153Z,-1.90
2023-11-22T11:23:59.742Z,-1.73
2023-11-22T11:26:37.944Z,-1.58
2023-11-22T11:29:33.570Z,-1.41
2023-11-22T11:32:05.985Z,-1.65
2023-11-22T11:34:57.567Z,-1.70
2023-11-22T11:37:31.737Z,-1.66
2023-11-22T11:40:35.960Z,-1.69
2023-11-22T11:43:08.191Z,-1.66
2023-11-22T11:45:48.900Z,-1.44
2023-11-22T11:48:21.794Z,-1.45
2023-11-22T11:50:54.011Z,-1.56
2023-11-22T11:53:26.097Z,-1.29
2023-11-22T11:55:59.138Z,-1.23
2023-11-22T11:58:31.154Z,-1.39
2023-11-22T12:01:03.999Z,-1.57
2023-11-22T12:03:39.539Z,-1.53
2023-11-22T12:06:15.649Z,-1.65
2023-11-22T12:08:48.681Z,-1.30
2023-11-22T12:11:20.980Z,-1.33
2023-11-22T12:13:53.772Z,-1.73
2023-11-22T12:16:25.676Z,-1.56
2023-11-22T12:19:00.060Z,-1.48
2023-11-22T12:21:32.381Z,-1.82
2023-11-22T12:24:07.595Z,-1.52
2023-11-22T12:26:43.325Z,-1.44
2023-11-22T12:29:19.872Z,-1.47
2023-11-22T12:31:54.424Z,-1.49
2023-11-22T12:34:27.686Z,-1.29
2023-11-22T12:37:07.559Z,-1.31
2023-11-22T12:39:39.360Z,-1.27
2023-11-22T12:42:11.683Z,-1.42
2023-11-22T12:44:56.069Z,-1.50
2023-11-22T12:47:37.384Z,-1.65
2023-11-22T12:50:29.589Z,-1.65
2023-11-22T12:53:09.781Z,-1.59
2023-11-22T12:55:51.504Z,-1.73
2023-11-22T12:58:25.382Z,-1.65
2023-11-22T13:01:02.187Z,-1.76
2023-11-22T13:03:34.971Z,-1.63
2023-11-22T13:06:07.634Z,-1.67
2023-11-22T13:08:39.684Z,-1.67
2023-11-22T13:11:11.557Z,-1.77
2023-11-22T13:13:43.352Z,-1.82
2023-11-22T13:16:17.873Z,-1.73
2023-11-22T13:18:50.131Z,-1.62
2023-11-22T13:21:22.859Z,-1.76
2023-11-22T13:23:54.744Z,-1.74
2023-11-22T13:26:27.625Z,-1.84
2023-11-22T13:29:00.352Z,-1.89
2023-11-22T13:31:32.218Z,-2.10
2023-11-22T13:34:04.150Z,-2.01
2023-11-22T13:36:36.628Z,-1.95
2023-11-22T13:39:08.437Z,-2.15
2023-11-22T13:41:40.389Z,-1.97
2023-11-22T13:44:12.540Z,-2.02
2023-11-22T13:46:44.580Z,-2.15
2023-11-22T13:49:16.529Z,-2.14
2023-11-22T13:51:49.612Z,-2.10
2023-11-22T13:54:21.728Z,-2.28
2023-11-22T13:56:54.585Z,-2.03
2023-11-22T13:59:27.737Z,-2.03
2023-11-22T14:01:59.579Z,-2.00
2023-11-22T14:04:32.041Z,-2.18
2023-11-22T14:07:03.984Z,-2.43
2023-11-22T14:09:38.046Z,-2.25
2023-11-22T14:12:10.311Z,-2.22
2023-11-22T14:14:42.266Z,-2.23
2023-11-22T14:17:15.425Z,-2.27
2023-11-22T14:19:53.429Z,-2.45
2023-11-22T14:22:26.608Z,-2.48
2023-11-22T14:24:58.504Z,-2.49
2023-11-22T14:27:32.047Z,-2.45
2023-11-22T14:30:07.294Z,-2.58
2023-11-22T14:32:39.215Z,-2.71
2023-11-22T14:35:12.851Z,-2.64
2023-11-22T14:37:46.112Z,-2.73
2023-11-22T14:40:21.353Z,-2.71
2023-11-22T14:42:54.256Z,-2.69
2023-11-22T14:45:28.437Z,-2.89
2023-11-22T14:48:00.500Z,-2.78
2023-11-22T14:50:32.799Z,-2.90
2023-11-22T14:53:04.976Z,-3.12
2023-11-22T14:55:41.795Z,-3.35
2023-11-22T14:58:13.631Z,-3.21
2023-11-22T15:00:46.109Z,-3.23
2023-11-22T15:03:18.124Z,-3.16
2023-11-22T15:05:50.026Z,-3.47
2023-11-22T15:08:22.110Z,-3.68
2023-11-22T15:10:53.946Z,-3.60
2023-11-22T15:13:26.070Z,-3.45
2023-11-22T15:16:01.346Z,-3.52
2023-11-22T15:18:33.510Z,-3.37
2023-11-22T15:21:06.824Z,-3.89
2023-11-22T15:23:38.720Z,-3.90
2023-11-22T15:26:10.702Z,-3.73
2023-11-22T15:28:42.521Z,-3.80
2023-11-22T15:31:18.203Z,-3.67
2023-11-22T15:33:50.333Z,-3.64
2023-11-22T15:36:22.285Z,-4.07
2023-11-22T15:38:54.247Z,-4.04
2023-11-22T15:41:28.236Z,-3.81
2023-11-22T15:44:00.204Z,-3.73
2023-11-22T15:46:32.285Z,-3.73
2023-11-22T15:49:05.220Z,-4.18
2023-11-22T15:51:37.723Z,-4.12
2023-11-22T15:54:09.604Z,-4.16
2023-11-22T15:56:41.771Z,-3.83
2023-11-22T15:59:13.718Z,-3.83
2023-11-22T16:01:46.114Z,-4.62
2023-11-22T16:04:18.610Z,-4.03
2023-11-22T16:06:52.327Z,-4.32
2023-11-22T16:09:24.284Z,-4.08
2023-11-22T16:11:56.203Z,-4.29
2023-11-22T16:14:28.080Z,-3.96
2023-11-22T16:17:00.048Z,-3.97
2023-11-22T16:19:31.908Z,-4.25
2023-11-22T16:22:04.752Z,-4.38
2023-11-22T16:24:37.127Z,-3.83
2023-11-22T16:27:09.033Z,-4.05
2023-11-22T16:29:40.886Z,-4.35
2023-11-22T16:32:12.978Z,-3.91
2023-11-22T16:34:44.785Z,-3.87
2023-11-22T16:37:16.632Z,-3.84
2023-11-22T16:39:48.610Z,-3.97
2023-11-22T16:42:22.000Z,-3.83
2023-11-22T16:44:53.854Z,-3.72
2023-11-22T16:47:26.138Z,-3.82
2023-11-22T16:49:58.073Z,-3.98
2023-11-22T16:52:30.597Z,-4.30
2023-11-22T16:55:04.931Z,-3.87
2023-11-22T16:57:37.621Z,-3.94
2023-11-22T17:00:14.302Z,-3.73
2023-11-22T17:02:49.945Z,-3.77
2023-11-22T17:05:22.080Z,-4.07
2023-11-22T17:07:55.105Z,-3.83
2023-11-22T17:10:45.215Z,-3.71
2023-11-22T17:13:19.198Z,-3.82
2023-11-22T17:15:51.104Z,-4.02
2023-11-22T17:18:23.897Z,-3.46
2023-11-22T17:20:57.639Z,-3.52
2023-11-22T17:23:29.908Z,-3.54
2023-11-22T17:26:01.819Z,-3.40
2023-11-22T17:28:35.282Z,-3.66
2023-11-22T17:31:07.159Z,-3.88
2023-11-22T17:33:39.130Z,-3.32
2023-11-22T17:36:11.157Z,-3.54
2023-11-22T17:38:43.115Z,-3.33
2023-11-22T17:41:14.936Z,-3.29
2023-11-22T17:43:46.819Z,-3.28
2023-11-22T17:46:18.656Z,-3.55
2023-11-22T17:48:52.285Z,-3.47
2023-11-22T17:51:24.914Z,-3.43
2023-11-22T17:53:56.762Z,-3.28
2023-11-22T17:56:28.626Z,-3.21
2023-11-22T17:59:00.485Z,-3.41
2023-11-22T18:01:32.770Z,-3.53
2023-11-22T18:04:04.919Z,-3.27
2023-11-22T18:06:36.840Z,-3.34
2023-11-22T18:09:11.321Z,-3.48
2023-11-22T18:11:43.173Z,-3.57
2023-11-22T18:14:15.828Z,-3.67
2023-11-22T18:16:47.760Z,-3.51
2023-11-22T18:19:19.674Z,-3.78
2023-11-22T18:21:51.603Z,-3.39
2023-11-22T18:24:24.648Z,-3.92
2023-11-22T18:26:56.607Z,-3.83
2023-11-22T18:29:29.138Z,-3.81
2023-11-22T18:32:01.230Z,-3.83
2023-11-22T18:34:33.938Z,-3.63
2023-11-22T18:37:06.848Z,-3.88
2023-11-22T18:39:38.882Z,-3.67
2023-11-22T18:42:11.255Z,-3.68
2023-11-22T18:44:43.664Z,-3.87
2023-11-22T18:47:15.564Z,-3.81
2023-11-22T18:49:48.090Z,-3.84
2023-11-22T18:52:19.933Z,-4.08
2023-11-22T18:54:51.775Z,-4.26
2023-11-22T18:57:23.606Z,-4.13
2023-11-22T18:59:55.466Z,-4.07
2023-11-22T19:02:27.414Z,-3.92
2023-11-22T19:04:59.897Z,-4.06
2023-11-22T19:07:31.796Z,-4.04
2023-11-22T19:10:03.946Z,-4.02
2023-11-22T19:12:36.049Z,-3.90
2023-11-22T19:15:08.820Z,-4.19
2023-11-22T19:17:41.099Z,-4.05
2023-11-22T19:20:13.009Z,-4.18
2023-11-22T19:22:44.858Z,-4.50
2023-11-22T19:25:17.035Z,-4.71
2023-11-22T19:27:48.879Z,-4.17
2023-11-22T19:30:20.688Z,-4.42
2023-11-22T19:32:53.087Z,-4.48
2023-11-22T19:35:24.971Z,-4.18
2023-11-22T19:37:57.302Z,-4.58
2023-11-22T19:40:31.017Z,-4.41
2023-11-22T19:43:05.227Z,-4.43
2023-11-22T19:45:37.255Z,-4.10
2023-11-22T19:48:09.457Z,-4.06
2023-11-22T19:50:41.458Z,-4.18
2023-11-22T19:53:13.321Z,-4.27
2023-11-22T19:55:45.170Z,-4.47
2023-11-22T19:58:17.361Z,-4.36
2023-11-22T20:00:49.372Z,-4.20
2023-11-22T20:03:21.342Z,-4.39
2023-11-22T20:05:54.601Z,-4.30
2023-11-22T20:08:26.694Z,-4.15
2023-11-22T20:10:58.886Z,-4.23
2023-11-22T20:13:30.886Z,-4.34
2023-11-22T20:16:02.802Z,-4.35
2023-11-22T20:18:34.886Z,-4.22
2023-11-22T20:21:06.852Z,-4.12
2023-11-22T20:23:38.711Z,-4.02
2023-11-22T20:26:11.468Z,-4.39
2023-11-22T20:28:43.685Z,-4.30
2023-11-22T20:31:17.163Z,-4.24
2023-11-22T20:33:49.242Z,-4.00
2023-11-22T20:36:21.376Z,-3.92
2023-11-22T20:38:53.481Z,-4.00
2023-11-22T20:41:26.721Z,-4.00
2023-11-22T20:44:00.441Z,-4.08
2023-11-22T20:46:32.460Z,-4.22
2023-11-22T20:49:04.427Z,-4.02
2023-11-22T20:51:37.179Z,-4.13
2023-11-22T20:54:09.976Z,-3.90
2023-11-22T20:56:41.948Z,-3.96
2023-11-22T20:59:14.037Z,-3.79
2023-11-22T21:01:46.091Z,-3.96
2023-11-22T21:04:18.207Z,-3.81
2023-11-22T21:06:50.113Z,-4.01
2023-11-22T21:09:22.886Z,-4.12
2023-11-22T21:11:55.229Z,-3.74
2023-11-22T21:14:27.170Z,-3.77
2023-11-22T21:17:00.710Z,-3.92
2023-11-22T21:19:32.750Z,-3.99
2023-11-22T21:22:04.888Z,-3.81
2023-11-22T21:24:36.975Z,-3.91
2023-11-22T21:27:09.429Z,-4.29
2023-11-22T21:29:41.657Z,-3.80
2023-11-22T21:32:13.908Z,-4.22
2023-11-22T21:34:45.773Z,-4.46
2023-11-22T21:37:17.738Z,-4.39
2023-11-22T21:39:49.952Z,-3.84
2023-11-22T21:42:21.823Z,-4.19
2023-11-22T21:44:53.916Z,-4.22
2023-11-22T21:47:25.929Z,-4.00
2023-11-22T21:49:57.783Z,-4.09
2023-11-22T21:52:29.671Z,-3.88
2023-11-22T21:55:01.533Z,-3.84
2023-11-22T21:57:33.425Z,-3.88
2023-11-22T22:00:06.244Z,-4.06
2023-11-22T22:02:40.408Z,-3.90
2023-11-22T22:05:13.873Z,-4.02
2023-11-22T22:07:45.852Z,-3.83
2023-11-22T22:10:17.769Z,-3.81
2023-11-22T22:12:49.637Z,-3.92
2023-11-22T22:15:22.016Z,-4.00
2023-11-22T22:17:53.892Z,-3.92
2023-11-22T22:20:26.524Z,-3.82
2023-11-22T22:22:58.315Z,-3.90
2023-11-22T22:25:30.137Z,-3.92
2023-11-22T22:28:01.945Z,-3.79
2023-11-22T22:30:34.961Z,-3.99
2023-11-22T22:33:07.213Z,-3.94
2023-11-22T22:35:39.777Z,-3.75
2023-11-22T22:38:11.597Z,-3.74
2023-11-22T22:40:43.414Z,-4.02
2023-11-22T22:43:15.194Z,-3.83
2023-11-22T22:45:47.003Z,-3.76
2023-11-22T22:48:19.167Z,-3.91
2023-11-22T22:50:51.662Z,-3.92
2023-11-22T22:53:23.988Z,-3.96
2023-11-22T22:55:55.794Z,-4.06
2023-11-22T22:58:27.583Z,-3.95
2023-11-22T23:00:59.503Z,-3.85
2023-11-22T23:03:31.929Z,-4.05
2023-11-22T23:06:04.787Z,-4.04
2023-11-22T23:08:39.718Z,-3.96
2023-11-22T23:11:11.525Z,-4.21
2023-11-22T23:13:45.221Z,-4.35
2023-11-22T23:16:17.129Z,-3.95
2023-11-22T23:18:57.767Z,-4.09
2023-11-22T23:21:32.456Z,-3.99
2023-11-22T23:24:04.592Z,-4.09
2023-11-22T23:26:37.116Z,-4.46
2023-11-22T23:29:09.755Z,-4.18
2023-11-22T23:31:42.682Z,-4.24
2023-11-22T23:34:14.637Z,-4.34
2023-11-22T23:36:46.589Z,-4.24
2023-11-22T23:39:19.037Z,-4.34
2023-11-22T23:41:50.891Z,-4.28
2023-11-22T23:44:24.220Z,-4.27
2023-11-22T23:46:56.018Z,-4.28
2023-11-22T23:49:28.345Z,-4.08
2023-11-22T23:52:02.151Z,-4.37
2023-11-22T23:54:35.209Z,-4.06
2023-11-22T23:57:07.318Z,-4.09
2023-11-22T23:59:39.128Z,-3.98
